Time;durP1;ratioP1;P1;durP2;ratioP2;P2;SDS_P1;SDS_P2;PMS_P1;PMS_P2;Temp;Humidity;BMP_temperature;BMP_pressure;BME280_temperature;BME280_humidity;BME280_pressure;Samples;Min_cycle;Max_cycle;Signal;HPM_P1;HPM_P2
2021/07/28 00:00:35;;;;;;;8.90;4.50;;;;;;;14.10;51.56;95188.16;5006879;28;20492;-74
2021/07/28 00:03:00;;;;;;;7.25;4.53;;;;;;;14.17;51.48;95193.50;5008684;28;20045;-74
2021/07/28 00:05:26;;;;;;;6.80;4.80;;;;;;;14.10;51.19;95187.38;5006508;28;20034;-74
2021/07/28 00:07:51;;;;;;;7.75;4.50;;;;;;;13.87;52.20;95189.44;5007459;28;20054;-74
2021/07/28 00:10:17;;;;;;;5.88;4.50;;;;;;;13.78;52.33;95188.84;5009175;28;20050;-74
2021/07/28 00:12:42;;;;;;;8.98;5.00;;;;;;;13.35;53.52;95192.81;5008650;28;20164;-74
2021/07/28 00:15:08;;;;;;;10.85;4.72;;;;;;;13.54;53.03;95201.81;5009675;28;20042;-74
2021/07/28 00:17:36;;;;;;;5.47;3.97;;;;;;;13.67;52.18;95197.53;5009042;28;20030;-74
2021/07/28 00:25:38;;;;;;;6.22;4.35;;;;;;;13.87;51.41;95205.50;5004996;28;20036;-74
2021/07/28 00:28:04;;;;;;;5.97;4.07;;;;;;;13.63;52.22;95205.13;5009220;28;20472;-74
2021/07/28 00:30:30;;;;;;;6.80;4.15;;;;;;;13.52;52.48;95197.72;5008698;28;20125;-73
2021/07/28 00:32:55;;;;;;;6.55;4.47;;;;;;;13.32;52.51;95187.84;5010130;28;20068;-74
2021/07/28 00:35:20;;;;;;;4.57;3.90;;;;;;;13.54;52.04;95191.13;5009614;28;20034;-74
2021/07/28 00:37:46;;;;;;;5.70;4.28;;;;;;;13.61;52.25;95201.84;5009836;28;20598;-74
2021/07/28 00:40:13;;;;;;;9.00;4.25;;;;;;;13.58;51.74;95196.91;5009345;28;20083;-74
2021/07/28 00:42:38;;;;;;;6.50;4.40;;;;;;;13.47;52.30;95202.88;5008154;28;20042;-74
2021/07/28 00:45:04;;;;;;;5.85;3.47;;;;;;;13.38;52.53;95197.75;5009957;28;20463;-74
2021/07/28 00:47:29;;;;;;;6.43;4.40;;;;;;;13.70;51.69;95200.59;5005739;28;20479;-74
2021/07/28 00:49:55;;;;;;;6.45;4.03;;;;;;;13.87;51.53;95196.66;5009709;28;20499;-74
2021/07/28 00:52:20;;;;;;;7.97;4.03;;;;;;;13.87;51.61;95200.13;5008751;28;20034;-74
2021/07/28 00:54:45;;;;;;;4.97;3.95;;;;;;;14.11;50.89;95199.72;5007906;28;20084;-74
2021/07/28 00:57:11;;;;;;;8.68;4.90;;;;;;;14.04;51.02;95194.38;5009329;28;20072;-74
2021/07/28 00:59:36;;;;;;;8.48;4.22;;;;;;;13.79;51.61;95187.81;4991494;28;20030;-73
2021/07/28 01:02:02;;;;;;;5.45;4.05;;;;;;;14.18;50.85;95181.78;4991700;28;20053;-73
2021/07/28 01:04:27;;;;;;;8.25;4.35;;;;;;;14.03;51.13;95196.22;5007737;28;20053;-74
2021/07/28 01:06:53;;;;;;;7.90;4.90;;;;;;;13.85;51.88;95196.88;5008844;28;20313;-74
2021/07/28 01:09:18;;;;;;;6.00;4.50;;;;;;;13.80;51.77;95194.81;5009241;28;20061;-73
2021/07/28 01:11:44;;;;;;;12.98;4.63;;;;;;;13.10;54.01;95201.44;5006180;28;20167;-74
2021/07/28 01:14:09;;;;;;;10.43;5.40;;;;;;;13.01;54.27;95199.97;5007467;28;20042;-74
2021/07/28 01:16:39;;;;;;;8.27;4.80;;;;;;;13.50;53.08;95197.13;5008984;28;20042;-74
2021/07/28 01:19:07;;;;;;;8.70;4.70;;;;;;;13.38;53.37;95192.41;5007919;28;20038;-74
2021/07/28 01:21:33;;;;;;;9.15;5.07;;;;;;;13.53;53.09;95196.72;5008059;28;20045;-74
2021/07/28 01:23:58;;;;;;;8.30;5.00;;;;;;;13.84;51.96;95192.56;5007636;28;20042;-73
2021/07/28 01:26:24;;;;;;;6.78;4.45;;;;;;;13.90;51.89;95196.28;5007407;28;20036;-74
2021/07/28 01:28:49;;;;;;;7.57;5.40;;;;;;;12.85;54.19;95199.31;5007778;28;20029;-74
2021/07/28 01:31:15;;;;;;;9.07;5.30;;;;;;;12.89;54.39;95189.84;5007413;28;20061;-74
2021/07/28 01:33:42;;;;;;;6.07;4.82;;;;;;;13.64;52.86;95190.75;5007712;28;20132;-74
2021/07/28 01:36:12;;;;;;;9.10;5.05;;;;;;;13.86;52.39;95195.81;5006723;28;20041;-74
2021/07/28 01:38:38;;;;;;;10.52;5.15;;;;;;;13.64;52.47;95195.25;5000831;28;20068;-73
2021/07/28 01:41:07;;;;;;;8.27;5.75;;;;;;;11.94;57.69;95195.88;5009205;28;20025;-72
2021/07/28 01:43:32;;;;;;;9.52;5.07;;;;;;;13.38;53.38;95181.69;5008602;28;20065;-72
2021/07/28 01:45:58;;;;;;;8.10;5.20;;;;;;;13.33;53.47;95181.50;5008892;28;20036;-74
2021/07/28 01:48:24;;;;;;;9.52;5.40;;;;;;;13.48;52.89;95186.63;5006756;28;20030;-74
2021/07/28 01:50:49;;;;;;;8.10;5.10;;;;;;;13.53;52.83;95181.47;4990900;28;20044;-73
2021/07/28 01:53:15;;;;;;;5.90;4.68;;;;;;;13.91;51.81;95179.97;5008594;28;20030;-73
2021/07/28 01:55:41;;;;;;;7.65;5.07;;;;;;;13.60;52.78;95173.44;5006622;28;20699;-74
2021/07/28 01:58:07;;;;;;;7.63;5.22;;;;;;;13.90;51.82;95173.00;5006875;28;20030;-73
2021/07/28 02:00:32;;;;;;;8.38;5.25;;;;;;;13.50;53.01;95175.72;5006620;28;20108;-73
2021/07/28 02:03:03;;;;;;;7.15;4.88;;;;;;;13.29;53.68;95166.88;5007931;28;20030;-73
2021/07/28 02:05:33;;;;;;;9.52;5.20;;;;;;;13.64;52.91;95174.69;5006744;28;20052;-73
2021/07/28 02:08:02;;;;;;;8.00;5.43;;;;;;;13.36;53.60;95178.41;5006307;28;20045;-74
2021/07/28 02:10:29;;;;;;;7.82;5.05;;;;;;;13.77;52.75;95170.34;5007397;28;20088;-74
2021/07/28 02:12:54;;;;;;;9.38;5.22;;;;;;;13.10;54.57;95176.56;5008221;28;20030;-74
2021/07/28 02:15:23;;;;;;;7.85;5.35;;;;;;;13.27;53.95;95172.47;5007347;28;20076;-74
2021/07/28 02:17:49;;;;;;;8.82;5.68;;;;;;;12.39;55.91;95176.81;5008152;28;20022;-74
2021/07/28 02:20:15;;;;;;;9.50;4.75;;;;;;;13.29;54.21;95164.22;5006078;28;20518;-74
2021/07/28 02:22:40;;;;;;;7.20;5.07;;;;;;;13.67;52.51;95166.22;5006335;28;20030;-74
2021/07/28 02:25:06;;;;;;;8.73;5.50;;;;;;;13.76;52.39;95149.94;5007780;28;20038;-74
2021/07/28 02:27:31;;;;;;;6.97;4.63;;;;;;;13.94;51.99;95158.16;5007908;28;20058;-74
2021/07/28 02:29:57;;;;;;;8.93;5.53;;;;;;;14.01;51.70;95163.50;5007757;28;20361;-74
2021/07/28 02:32:22;;;;;;;8.82;5.50;;;;;;;14.18;51.15;95157.69;5007844;28;20065;-74
2021/07/28 02:34:48;;;;;;;7.13;5.30;;;;;;;13.95;52.01;95154.44;5007087;28;20411;-74
2021/07/28 02:37:13;;;;;;;9.73;5.70;;;;;;;14.17;51.34;95162.19;5006745;28;20038;-74
2021/07/28 02:39:38;;;;;;;9.55;5.78;;;;;;;14.21;51.22;95158.06;5007230;28;20034;-74
2021/07/28 02:42:04;;;;;;;8.52;5.60;;;;;;;14.28;50.95;95159.91;5008089;28;20048;-74
2021/07/28 02:44:29;;;;;;;8.20;5.97;;;;;;;13.86;52.78;95161.03;5007396;28;20092;-74
2021/07/28 02:46:55;;;;;;;9.35;6.30;;;;;;;13.27;53.93;95163.59;5003555;28;20061;-74
2021/07/28 02:49:20;;;;;;;9.57;6.22;;;;;;;13.93;52.18;95158.38;5007808;28;20489;-74
2021/07/28 02:51:46;;;;;;;10.88;6.38;;;;;;;13.27;54.56;95152.91;5007580;28;20415;-74
2021/07/28 02:54:11;;;;;;;9.15;6.00;;;;;;;13.46;54.06;95155.78;5007399;28;20475;-74
2021/07/28 02:56:37;;;;;;;7.95;6.03;;;;;;;13.80;53.48;95153.84;5007538;28;20030;-74
2021/07/28 02:59:03;;;;;;;12.25;7.68;;;;;;;12.39;56.81;95148.28;5005978;28;20038;-74
2021/07/28 03:01:28;;;;;;;11.15;6.82;;;;;;;13.22;55.30;95150.06;5007885;28;20450;-74
2021/07/28 03:03:53;;;;;;;10.15;6.68;;;;;;;13.75;53.76;95143.78;5006935;28;20037;-74
2021/07/28 03:06:19;;;;;;;9.63;6.43;;;;;;;13.84;53.41;95144.41;5006895;28;20045;-74
2021/07/28 03:08:44;;;;;;;11.52;6.40;;;;;;;14.06;52.80;95144.13;5007345;28;20375;-74
2021/07/28 03:11:10;;;;;;;11.18;6.53;;;;;;;12.93;55.96;95145.66;5007206;28;20259;-74
2021/07/28 03:13:35;;;;;;;10.27;6.35;;;;;;;13.06;55.90;95141.41;5007431;28;20120;-74
2021/07/28 03:16:07;;;;;;;11.60;6.43;;;;;;;13.73;54.15;95150.38;5006620;28;20117;-74
2021/07/28 03:18:33;;;;;;;8.77;5.78;;;;;;;13.98;53.32;95153.22;5006996;28;20424;-74
2021/07/28 03:20:58;;;;;;;10.02;7.00;;;;;;;13.13;54.87;95144.09;5007452;28;20133;-74
2021/07/28 03:23:24;;;;;;;8.52;6.68;;;;;;;13.27;55.28;95143.06;5006974;28;20176;-74
2021/07/28 03:25:49;;;;;;;11.18;6.90;;;;;;;13.56;54.03;95146.28;5007173;28;20133;-74
2021/07/28 03:28:15;;;;;;;11.90;7.97;;;;;;;12.54;56.66;95150.75;5006637;28;20202;-74
2021/07/28 03:30:40;;;;;;;8.40;5.70;;;;;;;13.33;55.14;95145.91;5006982;28;20646;-74
2021/07/28 03:33:05;;;;;;;10.18;7.13;;;;;;;13.24;55.29;95147.97;5007147;28;20149;-74
2021/07/28 03:35:31;;;;;;;10.00;6.05;;;;;;;13.89;53.75;95149.97;5006571;28;20121;-74
2021/07/28 03:37:56;;;;;;;10.70;6.38;;;;;;;13.42;54.88;95148.16;5008605;28;20089;-74
2021/07/28 03:40:22;;;;;;;9.00;6.80;;;;;;;13.54;54.39;95155.56;5010577;28;20125;-74
2021/07/28 03:42:48;;;;;;;10.63;6.63;;;;;;;13.61;54.26;95153.72;5010445;28;20296;-73
2021/07/28 03:45:13;;;;;;;12.13;7.32;;;;;;;12.59;56.95;95158.19;5010872;28;20090;-73
2021/07/28 03:47:38;;;;;;;9.13;6.40;;;;;;;13.59;54.48;95154.94;5009139;28;20233;-74
2021/07/28 03:50:04;;;;;;;12.00;7.18;;;;;;;12.38;57.54;95162.63;5009644;28;20082;-73
2021/07/28 03:52:30;;;;;;;11.43;6.47;;;;;;;13.54;54.76;95167.06;5010047;28;20117;-73
2021/07/28 03:54:55;;;;;;;8.40;5.97;;;;;;;13.69;53.61;95161.50;5010271;28;20136;-73
2021/07/28 03:57:21;;;;;;;9.60;6.80;;;;;;;12.60;57.39;95154.47;5010545;28;20098;-73
2021/07/28 03:59:46;;;;;;;9.40;6.32;;;;;;;13.18;55.78;95157.63;5010201;28;20113;-73
2021/07/28 04:02:13;;;;;;;11.70;6.93;;;;;;;12.11;58.71;95161.72;5010371;28;20083;-73
2021/07/28 04:04:39;;;;;;;11.82;6.30;;;;;;;12.65;57.27;95157.34;5009853;28;20110;-73
2021/07/28 04:07:05;;;;;;;9.38;5.93;;;;;;;13.25;55.50;95152.28;5010320;28;20117;-73
2021/07/28 04:09:30;;;;;;;8.30;5.82;;;;;;;13.62;54.40;95150.00;5010541;28;20126;-73
2021/07/28 04:11:56;;;;;;;6.35;5.18;;;;;;;13.69;54.02;95150.81;5008519;28;20029;-74
2021/07/28 04:14:21;;;;;;;11.88;5.82;;;;;;;13.59;54.18;95147.72;5008313;28;20532;-73
2021/07/28 04:16:48;;;;;;;7.28;5.15;;;;;;;13.83;53.26;95143.56;5010286;28;20634;-73
2021/07/28 04:19:13;;;;;;;9.60;5.45;;;;;;;14.02;53.05;95149.09;5008480;28;20102;-73
2021/07/28 04:21:38;;;;;;;8.95;6.03;;;;;;;12.96;55.80;95151.66;5010549;28;20034;-73
2021/07/28 04:24:04;;;;;;;6.97;4.95;;;;;;;13.81;53.84;95148.28;5009871;28;20052;-74
2021/07/28 04:26:30;;;;;;;12.95;5.97;;;;;;;13.93;53.48;95151.19;5009867;28;20034;-73
2021/07/28 04:28:55;;;;;;;11.98;6.45;;;;;;;13.23;55.30;95157.03;5010103;28;20078;-73
2021/07/28 04:31:20;;;;;;;10.63;5.85;;;;;;;13.77;54.28;95151.63;5009752;28;20046;-73
2021/07/28 04:33:46;;;;;;;10.25;6.40;;;;;;;13.15;55.34;95161.56;5010038;28;20113;-73
2021/07/28 04:36:11;;;;;;;10.00;6.70;;;;;;;13.13;55.76;95158.25;5009247;28;20038;-74
2021/07/28 04:38:37;;;;;;;9.90;6.28;;;;;;;12.92;56.93;95167.28;5009530;28;20056;-74
2021/07/28 04:41:02;;;;;;;11.20;5.75;;;;;;;13.61;54.44;95161.72;5010183;28;20042;-74
2021/07/28 04:43:27;;;;;;;9.40;6.03;;;;;;;13.37;54.55;95153.34;5009414;28;20042;-73
2021/07/28 04:45:59;;;;;;;12.18;6.22;;;;;;;13.92;53.57;95154.06;5008885;28;20038;-74
2021/07/28 04:48:26;;;;;;;7.35;5.40;;;;;;;12.66;57.57;95158.19;5007392;28;20531;-73
2021/07/28 04:50:52;;;;;;;10.43;5.35;;;;;;;14.28;52.98;95152.69;5007666;28;20094;-74
2021/07/28 04:53:17;;;;;;;7.53;5.30;;;;;;;14.48;52.15;95150.97;5009755;28;20057;-73
2021/07/28 04:55:43;;;;;;;7.45;4.82;;;;;;;14.74;51.48;95144.63;5009119;28;20038;-73
2021/07/28 04:58:08;;;;;;;7.45;5.55;;;;;;;14.96;50.71;95146.97;5009891;28;20463;-74
2021/07/28 05:00:34;;;;;;;9.05;5.43;;;;;;;14.77;50.99;95144.22;5002120;28;20034;-74
2021/07/28 05:02:59;;;;;;;7.88;5.00;;;;;;;;;;5008004;28;20029;-74
2021/07/28 05:05:25;;;;;;;7.83;5.53;;;;;;;14.74;51.12;95150.00;5009081;28;20765;-73
2021/07/28 05:07:50;;;;;;;6.75;5.22;;;;;;;15.13;50.01;95152.59;5009219;28;20784;-73
2021/07/28 05:10:16;;;;;;;8.98;5.30;;;;;;;15.48;49.19;95157.47;5009288;28;20053;-73
2021/07/28 05:12:41;;;;;;;7.30;4.72;;;;;;;15.34;49.65;95155.94;5008689;28;20049;-73
2021/07/28 05:15:07;;;;;;;5.50;4.18;;;;;;;15.47;49.49;95163.06;5008612;28;20407;-73
2021/07/28 05:17:32;;;;;;;7.97;5.03;;;;;;;14.29;52.62;95170.41;5009361;28;20045;-73
2021/07/28 05:19:58;;;;;;;8.05;5.60;;;;;;;14.93;50.99;95161.59;5008583;28;20052;-72
2021/07/28 05:22:23;;;;;;;12.10;5.78;;;;;;;14.93;50.70;95169.66;5009039;28;20038;-73
2021/07/28 05:24:49;;;;;;;9.45;5.05;;;;;;;14.51;51.46;95169.28;5009044;28;20029;-73
2021/07/28 05:27:14;;;;;;;7.90;5.53;;;;;;;14.47;51.68;95171.53;5008872;28;20375;-72
2021/07/28 05:29:40;;;;;;;7.97;5.80;;;;;;;14.28;52.34;95163.38;5009098;28;20095;-72
2021/07/28 05:32:05;;;;;;;7.40;5.60;;;;;;;13.60;54.23;95178.78;5008600;28;20060;-72
2021/07/28 05:34:31;;;;;;;7.40;5.03;;;;;;;13.18;56.11;95181.69;5008554;28;20061;-73
2021/07/28 05:36:57;;;;;;;10.13;5.90;;;;;;;13.22;55.45;95177.59;5008890;28;20022;-73
2021/07/28 05:39:24;;;;;;;9.43;5.47;;;;;;;13.69;54.28;95180.22;5006808;28;20045;-73
2021/07/28 05:41:50;;;;;;;11.50;6.00;;;;;;;13.82;54.02;95176.72;5009257;28;20053;-72
2021/07/28 05:44:15;;;;;;;7.18;5.22;;;;;;;14.28;52.75;95179.44;5008231;28;20105;-72
2021/07/28 05:46:41;;;;;;;10.73;5.75;;;;;;;14.56;52.40;95183.66;5004711;28;20476;-72
2021/07/28 05:49:06;;;;;;;7.50;4.80;;;;;;;14.66;51.57;95182.38;5006201;28;20033;-71
2021/07/28 05:51:32;;;;;;;8.93;5.22;;;;;;;14.84;51.05;95176.31;5008094;28;20037;-73
2021/07/28 05:53:57;;;;;;;6.93;5.32;;;;;;;14.96;50.81;95176.47;5008408;28;20041;-72
2021/07/28 05:56:22;;;;;;;8.93;5.35;;;;;;;15.08;50.42;95173.88;5008019;28;20137;-72
2021/07/28 05:58:48;;;;;;;8.05;5.65;;;;;;;14.61;51.49;95184.88;5008022;28;20575;-72
2021/07/28 06:01:13;;;;;;;6.47;4.85;;;;;;;14.72;51.19;95182.34;5008021;28;20078;-72
2021/07/28 06:03:39;;;;;;;8.32;5.68;;;;;;;14.68;51.59;95188.31;5007691;28;20106;-72
2021/07/28 06:06:04;;;;;;;7.72;5.53;;;;;;;14.94;50.72;95186.56;5007453;28;20087;-72
2021/07/28 06:08:30;;;;;;;8.70;5.65;;;;;;;14.67;51.27;95176.81;5007203;28;20118;-72
2021/07/28 06:10:56;;;;;;;10.13;4.97;;;;;;;14.87;50.75;95180.41;5007233;28;20452;-72
2021/07/28 06:13:21;;;;;;;8.20;5.03;;;;;;;15.09;50.63;95181.72;5005431;28;20661;-73
2021/07/28 06:15:48;;;;;;;6.13;4.55;;;;;;;15.29;50.45;95182.59;5011064;28;20102;-71
2021/07/28 06:18:14;;;;;;;8.95;5.53;;;;;;;15.68;49.15;95179.81;5002579;28;20029;-71
2021/07/28 06:20:40;;;;;;;7.70;5.45;;;;;;;14.73;52.15;95185.84;5004888;28;20041;-73
2021/07/28 06:23:05;;;;;;;8.55;5.68;;;;;;;15.51;49.43;95180.34;5007217;28;20486;-72
2021/07/28 06:25:31;;;;;;;8.77;4.80;;;;;;;15.18;50.69;95176.06;5007001;28;20121;-73
2021/07/28 06:27:56;;;;;;;11.10;6.05;;;;;;;14.53;52.13;95170.69;4997840;28;20034;-73
2021/07/28 06:30:21;;;;;;;8.75;5.25;;;;;;;14.13;54.00;95174.38;5003435;28;20581;-72
2021/07/28 06:32:47;;;;;;;6.82;4.93;;;;;;;15.03;52.04;95179.09;5003898;28;20026;-72
2021/07/28 06:35:13;;;;;;;5.70;4.38;;;;;;;15.58;50.53;95177.63;5005209;28;20049;-73
2021/07/28 06:37:38;;;;;;;7.25;4.65;;;;;;;16.16;49.70;95174.75;5004380;28;20030;-73
2021/07/28 06:40:04;;;;;;;9.95;5.50;;;;;;;16.56;47.92;95178.84;5003762;28;20041;-73
2021/07/28 06:42:29;;;;;;;6.85;4.70;;;;;;;16.76;47.58;95176.72;5003988;28;20070;-72
2021/07/28 06:44:55;;;;;;;9.73;5.68;;;;;;;16.26;47.63;95175.88;5003803;28;20045;-72
2021/07/28 06:47:20;;;;;;;7.45;4.60;;;;;;;16.08;48.24;95184.75;4997315;28;20037;-73
2021/07/28 06:49:46;;;;;;;9.55;5.50;;;;;;;15.67;49.51;95181.66;5000112;28;20520;-73
2021/07/28 06:52:11;;;;;;;6.45;4.38;;;;;;;15.53;48.88;95174.78;4999432;28;20042;-72
2021/07/28 06:54:37;;;;;;;6.82;4.93;;;;;;;15.76;48.69;95176.84;4999755;28;20423;-72
2021/07/28 06:57:02;;;;;;;6.88;4.85;;;;;;;16.26;47.50;95175.06;5001129;28;20109;-73
2021/07/28 06:59:28;;;;;;;7.05;5.00;;;;;;;16.30;48.08;95183.47;4999512;28;20034;-72
2021/07/28 07:01:53;;;;;;;11.38;5.70;;;;;;;16.37;47.57;95179.72;5000853;28;20030;-72
2021/07/28 07:04:19;;;;;;;8.73;6.00;;;;;;;16.18;47.34;95188.78;4999976;28;20463;-72
2021/07/28 07:06:44;;;;;;;6.18;5.10;;;;;;;16.41;47.66;95180.06;4999717;28;20395;-73
2021/07/28 07:09:09;;;;;;;8.68;5.68;;;;;;;16.63;46.82;95191.13;4999453;28;20134;-73
2021/07/28 07:11:35;;;;;;;8.80;6.22;;;;;;;16.17;47.62;95184.44;5001647;28;20525;-73
2021/07/28 07:14:00;;;;;;;8.77;6.50;;;;;;;16.29;47.23;95184.53;5003704;28;20466;-73
2021/07/28 07:16:26;;;;;;;12.25;7.97;;;;;;;16.14;47.33;95183.03;5004568;28;20042;-73
2021/07/28 07:18:51;;;;;;;8.18;6.22;;;;;;;16.31;47.92;95183.25;5003597;28;20041;-73
2021/07/28 07:21:17;;;;;;;11.63;8.70;;;;;;;16.11;47.02;95183.47;5004325;28;20048;-74
2021/07/28 07:23:42;;;;;;;11.45;7.75;;;;;;;15.56;49.30;95185.06;5004140;28;20045;-73
2021/07/28 07:26:08;;;;;;;10.80;7.63;;;;;;;16.11;48.66;95184.31;5004117;28;20144;-73
2021/07/28 07:28:34;;;;;;;10.40;8.35;;;;;;;16.08;47.53;95186.63;5004384;28;20118;-73
2021/07/28 07:31:00;;;;;;;12.05;8.30;;;;;;;16.38;47.67;95191.25;5003861;28;20522;-72
2021/07/28 07:33:39;;;;;;;8.63;6.50;;;;;;;16.32;48.08;95190.25;5004103;28;20078;-73
2021/07/28 07:36:11;;;;;;;10.55;8.20;;;;;;;15.89;48.27;95183.94;5001770;28;20197;-72
2021/07/28 07:38:37;;;;;;;12.93;6.47;;;;;;;16.38;48.17;95177.81;5002138;28;20534;-73
2021/07/28 07:41:03;;;;;;;9.00;6.07;;;;;;;16.38;48.23;95175.13;5002266;28;20113;-72
2021/07/28 07:43:29;;;;;;;10.93;6.28;;;;;;;16.52;48.05;95179.31;5003720;28;20117;-73
2021/07/28 07:45:55;;;;;;;11.15;7.18;;;;;;;16.51;47.56;95179.53;5001835;28;20116;-73
2021/07/28 07:48:22;;;;;;;10.20;6.95;;;;;;;16.72;47.63;95194.34;5001657;28;20118;-72
2021/07/28 07:50:48;;;;;;;12.27;6.77;;;;;;;16.90;46.99;95180.03;5003269;28;20428;-73
2021/07/28 07:53:13;;;;;;;10.10;7.15;;;;;;;15.33;50.89;95183.81;5004445;28;20078;-73
2021/07/28 07:55:39;;;;;;;10.82;6.97;;;;;;;15.55;50.58;95184.25;5002641;28;20125;-73
2021/07/28 07:58:04;;;;;;;7.75;6.65;;;;;;;15.69;50.39;95184.13;5004022;28;20030;-73
2021/07/28 08:00:30;;;;;;;9.02;6.30;;;;;;;16.25;48.99;95197.59;5002981;28;20045;-74
2021/07/28 08:02:55;;;;;;;10.00;7.45;;;;;;;15.88;49.46;95191.16;5003541;28;20041;-73
2021/07/28 08:05:21;;;;;;;13.15;7.55;;;;;;;14.57;53.18;95197.88;5002800;28;20038;-72
2021/07/28 08:07:46;;;;;;;11.50;8.30;;;;;;;15.61;50.21;95191.41;5003200;28;20042;-72
2021/07/28 08:10:12;;;;;;;12.40;8.13;;;;;;;14.23;53.90;95181.94;5002641;28;20066;-72
2021/07/28 08:12:38;;;;;;;9.65;6.90;;;;;;;14.71;53.76;95195.94;5000062;28;20530;-72
2021/07/28 08:15:04;;;;;;;10.38;7.22;;;;;;;15.87;50.36;95177.97;5002505;28;20044;-72
2021/07/28 08:17:29;;;;;;;10.98;7.00;;;;;;;15.61;50.54;95175.31;5004691;28;20504;-72
2021/07/28 08:19:54;;;;;;;12.73;9.75;;;;;;;15.90;49.31;95169.47;5002546;28;20106;-73
2021/07/28 08:22:20;;;;;;;12.25;6.75;;;;;;;16.57;48.35;95175.94;5003821;28;20082;-72
2021/07/28 08:24:45;;;;;;;11.18;7.32;;;;;;;16.46;49.19;95180.19;5002967;28;20050;-72
2021/07/28 08:27:11;;;;;;;10.73;7.55;;;;;;;16.19;49.34;95177.00;5002943;28;20037;-72
2021/07/28 08:29:36;;;;;;;12.48;8.20;;;;;;;16.65;48.98;95174.78;5003579;28;20032;-72
2021/07/28 08:32:02;;;;;;;10.57;7.50;;;;;;;17.24;47.23;95173.34;5001727;28;20061;-72
2021/07/28 08:34:27;;;;;;;10.65;7.03;;;;;;;17.15;47.27;95165.63;5003528;28;20042;-72
2021/07/28 08:36:53;;;;;;;11.63;6.60;;;;;;;17.59;46.98;95169.88;5003197;28;20037;-72
2021/07/28 08:39:18;;;;;;;11.38;6.50;;;;;;;18.32;45.65;95171.44;5002585;28;20413;-72
2021/07/28 08:41:46;;;;;;;8.55;6.35;;;;;;;17.78;45.55;95175.94;5003312;28;20034;-72
2021/07/28 08:44:12;;;;;;;9.48;6.80;;;;;;;17.62;46.12;95164.03;5002037;28;20510;-71
2021/07/28 08:46:37;;;;;;;10.68;6.50;;;;;;;17.07;47.45;95167.78;5001227;28;20042;-71
2021/07/28 08:49:03;;;;;;;8.95;6.10;;;;;;;17.52;47.30;95159.25;4999907;28;20038;-71
2021/07/28 08:51:28;;;;;;;16.73;9.68;;;;;;;17.42;46.88;95175.13;5003224;28;20376;-72
2021/07/28 08:53:54;;;;;;;11.00;7.38;;;;;;;17.34;46.94;95178.16;5004074;28;20030;-72
2021/07/28 08:56:21;;;;;;;12.23;9.02;;;;;;;16.43;48.98;95186.03;5001212;28;20030;-71
2021/07/28 08:58:47;;;;;;;15.05;9.02;;;;;;;16.26;49.24;95186.59;5002394;28;20038;-71
2021/07/28 09:01:12;;;;;;;8.93;6.97;;;;;;;15.84;51.25;95183.78;5003081;28;20093;-72
2021/07/28 09:03:39;;;;;;;8.23;6.47;;;;;;;16.51;49.83;95183.03;5002996;28;20109;-74
2021/07/28 09:06:04;;;;;;;14.60;9.32;;;;;;;16.16;50.13;95193.56;5001004;28;20160;-73
2021/07/28 09:08:30;;;;;;;12.15;8.02;;;;;;;15.54;51.14;95201.34;5000236;28;20114;-73
2021/07/28 09:11:00;;;;;;;8.70;6.00;;;;;;;14.62;54.31;95205.28;4994421;28;20160;-73
2021/07/28 09:13:34;;;;;;;9.98;7.13;;;;;;;13.40;57.95;95198.34;4999918;28;20082;-72
2021/07/28 09:16:07;;;;;;;9.20;6.95;;;;;;;13.21;58.60;95191.97;4996919;28;20128;-72
2021/07/28 09:18:37;;;;;;;10.98;7.40;;;;;;;13.55;58.17;95194.63;5000551;28;20208;-72
2021/07/28 09:21:04;;;;;;;10.60;7.13;;;;;;;13.52;58.47;95198.56;5002842;28;20141;-73
2021/07/28 09:23:40;;;;;;;11.38;6.78;;;;;;;14.19;56.02;95196.78;5002476;28;20556;-72
2021/07/28 09:26:32;;;;;;;7.00;5.15;;;;;;;14.10;56.56;95196.19;5003124;28;20247;-72
2021/07/28 09:29:01;;;;;;;6.88;4.95;;;;;;;14.25;57.13;95201.31;5002312;28;20969;-72
2021/07/28 09:32:03;;;;;;;10.75;5.55;;;;;;;14.23;56.78;95192.66;5002721;28;20557;-72
2021/07/28 09:34:31;;;;;;;9.88;6.10;;;;;;;14.29;56.87;95193.66;5001086;28;20517;-72
2021/07/28 09:37:17;;;;;;;9.07;5.70;;;;;;;15.22;53.55;95186.16;5002913;28;20086;-72
2021/07/28 09:39:43;;;;;;;10.30;4.80;;;;;;;15.69;52.46;95192.19;4999876;28;20138;-72
2021/07/28 09:42:13;;;;;;;8.95;4.97;;;;;;;15.55;52.62;95183.41;5002933;28;20074;-73
2021/07/28 09:44:41;;;;;;;7.18;5.18;;;;;;;15.39;54.13;95185.59;4994327;28;20106;-72
2021/07/28 09:47:19;;;;;;;8.95;5.63;;;;;;;15.67;52.56;95187.03;4997224;28;20084;-71
2021/07/28 09:49:46;;;;;;;8.07;4.88;;;;;;;14.50;56.27;95194.41;4985315;28;20038;-72
2021/07/28 09:52:25;;;;;;;6.55;4.63;;;;;;;15.49;53.42;95185.94;5008306;28;20138;-72
2021/07/28 09:54:52;;;;;;;10.45;7.28;;;;;;;16.45;51.49;95183.94;5008471;28;20044;-72
2021/07/28 09:57:21;;;;;;;8.47;4.27;;;;;;;17.35;48.80;95185.19;5008453;28;20049;-72
2021/07/28 10:00:08;;;;;;;7.18;4.28;;;;;;;15.53;52.80;95193.56;5006288;28;20037;-71
2021/07/28 10:02:34;;;;;;;6.35;3.90;;;;;;;16.55;50.96;95188.78;5007041;28;20037;-71
2021/07/28 10:05:00;;;;;;;5.68;4.22;;;;;;;16.29;50.93;95190.72;5007179;28;20034;-72
2021/07/28 10:07:26;;;;;;;6.32;4.20;;;;;;;14.28;57.76;95190.16;5007037;28;20080;-71
2021/07/28 10:10:11;;;;;;;4.45;3.65;;;;;;;16.11;51.41;95194.22;5005951;28;20045;-71
2021/07/28 10:12:38;;;;;;;7.70;3.80;;;;;;;15.90;50.97;95188.25;5000597;28;20045;-71
2021/07/28 10:15:05;;;;;;;6.50;4.20;;;;;;;15.18;54.09;95181.44;5006996;28;20034;-72
2021/07/28 10:17:34;;;;;;;3.60;3.22;;;;;;;15.83;51.44;95190.19;5007882;28;20961;-71
2021/07/28 10:20:00;;;;;;;6.95;4.00;;;;;;;14.82;55.68;95171.16;4989001;28;20042;-72
2021/07/28 10:22:25;;;;;;;4.80;3.75;;;;;;;15.39;54.51;95168.69;5006966;28;20069;-71
2021/07/28 10:24:51;;;;;;;5.10;3.80;;;;;;;16.78;50.47;95160.34;5006967;28;20026;-72
2021/07/28 10:27:16;;;;;;;8.32;4.40;;;;;;;14.64;54.72;95165.69;5006847;28;20495;-71
2021/07/28 10:29:42;;;;;;;6.45;3.95;;;;;;;16.40;51.02;95146.19;5005614;28;20041;-71
2021/07/28 10:32:07;;;;;;;8.07;4.00;;;;;;;16.60;48.86;95153.16;5005163;28;20212;-72
2021/07/28 10:34:36;;;;;;;6.40;3.88;;;;;;;15.52;53.12;95152.47;5005461;28;20047;-72
2021/07/28 10:37:06;;;;;;;3.60;2.97;;;;;;;16.55;48.83;95177.22;5006736;28;20562;-71
2021/07/28 10:39:46;;;;;;;5.60;3.92;;;;;;;13.94;57.66;95189.47;5006445;28;20106;-71
2021/07/28 10:42:11;;;;;;;6.18;3.90;;;;;;;14.68;55.38;95161.53;5005328;28;20134;-71
2021/07/28 10:45:09;;;;;;;5.07;3.63;;;;;;;15.97;51.24;95162.16;5006122;28;20113;-71
2021/07/28 10:47:47;;;;;;;8.93;3.70;;;;;;;16.45;49.00;95178.56;4997407;28;20193;-72
2021/07/28 10:50:30;;;;;;;4.25;3.30;;;;;;;17.12;48.11;95155.34;5006610;28;20447;-70
2021/07/28 10:52:59;;;;;;;5.60;3.30;;;;;;;17.11;47.06;95168.97;5000741;28;20046;-71
2021/07/28 10:55:30;;;;;;;3.60;2.63;;;;;;;17.16;46.79;95150.28;4993521;28;20110;-70
2021/07/28 10:58:11;;;;;;;4.20;3.10;;;;;;;16.90;47.87;95165.78;4994534;28;20178;-70
2021/07/28 11:00:39;;;;;;;6.35;4.10;;;;;;;17.79;47.38;95153.34;4996015;28;20046;-70
2021/07/28 11:03:13;;;;;;;4.28;3.20;;;;;;;17.11;47.82;95147.47;4999462;28;20132;-70
2021/07/28 11:05:39;;;;;;;3.65;3.00;;;;;;;17.59;47.15;95145.66;4995441;28;20302;-71
2021/07/28 11:08:05;;;;;;;5.80;3.17;;;;;;;18.18;44.71;95149.34;4997933;28;20558;-71
2021/07/28 11:11:01;;;;;;;4.28;2.78;;;;;;;17.67;45.39;95145.28;5000701;28;20294;-71
2021/07/28 11:13:30;;;;;;;4.03;2.90;;;;;;;16.11;48.71;95162.00;5004133;28;20326;-71
2021/07/28 11:16:05;;;;;;;3.15;2.55;;;;;;;16.57;47.79;95146.38;4989902;28;20545;-70
2021/07/28 11:18:32;;;;;;;4.72;2.83;;;;;;;16.57;47.52;95173.25;4996215;28;20148;-71
2021/07/28 11:21:24;;;;;;;5.53;2.90;;;;;;;15.86;49.18;95150.31;4996666;28;20095;-70
2021/07/28 11:23:50;;;;;;;7.68;3.28;;;;;;;17.26;46.82;95153.25;4995619;28;20108;-71
2021/07/28 11:26:38;;;;;;;5.32;3.10;;;;;;;17.23;46.71;95145.63;4991892;28;20034;-70
2021/07/28 11:29:17;;;;;;;6.07;3.10;;;;;;;17.79;45.14;95150.66;4970631;28;20047;-70
2021/07/28 11:31:52;;;;;;;2.92;2.63;;;;;;;18.06;44.58;95152.06;4977756;28;20038;-70
2021/07/28 11:34:19;;;;;;;4.85;3.10;;;;;;;16.42;47.81;95170.94;4971756;28;20547;-70
2021/07/28 11:37:06;;;;;;;5.10;3.05;;;;;;;18.05;45.42;95148.56;4974432;28;20057;-70